Terminal Aerodrome Forecast
Issued by NWS

Home | Current Version | Previous Version | Text Only | Print | Product List | Glossary On
Versions: 1 2 3 4 5 6 7 8 9 10 11 12
000
FTUS42 KMLB 301700 RRA
TAFSFB
TAF
KSFB 301743Z 3018/3118 30008KT P6SM SCT025 SCT250
      TEMPO 3018/3019 BKN025
     FM301900 33011G18KT P6SM FEW030 SCT060 SCT250
     FM310100 36008KT P6SM FEW250
     FM311400 05010KT P6SM FEW250=

USA.gov is the U.S. government's official web portal to all federal, state and local government web resources and services.